• Join FlightAware (Why Join?)
  • Login
  • US Flag 
02:06AM EDT


 

Airport Tracker/Info


-or-


 

Live Flight TrackerFlight Track Log ✈ DAL268 ✈ 29-Jun-2013 ✈ KJFK - LLBG / TLV

Flight Track Log - Related Links

Times and Time Zones

All times are in EDT time to prevent confusion due to time zone crossing. See the DAL268 flight status page for this flight to view local times or setup timezone preferences in your user account.

Time Position Orientation Groundspeed Altitude Reporting Facility
EDT Latitude Longitude Course Direction KTS MPH feet Rate Location/Type
11:38PM 40.6320 -73.7820 264° West  Level FlightAware
11:41PM 40.6330 -73.7810 37° Northeast 10 12  Level FlightAware
11:44PM 40.9266 -73.5067 37° Northeast  Level FlightAware Approximate
11:45PM 41.0417 -73.4084 30° Northeast  Level FlightAware Approximate
11:46PM 41.1658 -73.3176 37° Northeast  Level FlightAware Approximate
11:47PM 41.2847 -73.2146 48° Northeast  Level FlightAware Approximate
11:48PM 41.3886 -73.0954 72° East  Level FlightAware Approximate
11:48PM 40.6310 -73.7790 90° East 22 25  Level FlightAware
11:48PM 40.6320 -73.7790 360° North 27 31 60 Level FlightAware
11:49PM 40.6340 -73.7770 37° Northeast 15 17 60 Level FlightAware
11:49PM 40.6360 -73.7760 21° North 16 18 60 Level FlightAware
11:50PM 40.6370 -73.7750 37° Northeast 17 20 60 Level FlightAware
11:50PM 40.6390 -73.7740 21° North 15 17 60 Level FlightAware
11:51PM 40.6410 -73.7730 21° North 28 32 60 Level FlightAware
11:52PM 40.6440 -73.7720 14° North 27 31 120 Level FlightAware
11:52PM 40.6450 -73.7710 37° Northeast 12 14 120 Level FlightAware
11:53PM 40.6460 -73.7700 37° Northeast 22 25 120 Level FlightAware
11:54PM 40.6440 -73.7710 201° Southwest 48 55 300 Level FlightAware
11:55PM 40.6200 -73.7890 210° Southwest 175 201 500 1,080 Climbing FlightAware
11:55PM 40.6030 -73.8030 212° Southwest 179 206 1,300 1,680 Climbing FlightAware
11:56PM 40.5860 -73.8110 200° South 194 223 1,800 1,260 Climbing FlightAware
11:56PM 40.5760 -73.8090 171° South 214 246 2,000 840 Climbing FlightAware
11:56PM 40.5620 -73.7940 141° Southeast 241 277 2,200 1,020 Climbing FlightAware
11:56PM 40.5550 -73.7790 122° Southeast 254 292 2,500 1,200 Climbing FlightAware
11:56PM 40.5530 -73.7660 101° East 264 304 2,600 840 Climbing FlightAware
11:57PM 40.5590 -73.7340 76° East 283 326 2,900 1,320 Climbing FlightAware
11:57PM 40.5710 -73.7100 57° Northeast 292 336 3,400 2,100 Climbing FlightAware
11:58PM 40.5954 -73.6752 47° Northeast 301 346 4,400 2,460 Climbing FlightAware ADS-B
11:58PM 40.6165 -73.6452 47° Northeast 306 352 5,400 2,580 Climbing FlightAware ADS-B
11:58PM 40.6312 -73.6247 47° Northeast 306 352 6,000 2,580 Climbing FlightAware ADS-B
11:58PM 40.6462 -73.6039 46° Northeast 313 360 6,700 2,520 Climbing FlightAware ADS-B
11:59PM 40.6671 -73.5775 44° Northeast 320 368 7,500 2,160 Climbing FlightAware ADS-B
11:59PM 40.6731 -73.5723 33° Northeast 321 369 7,600 1,980 Climbing FlightAware ADS-B
11:59PM 40.6826 -73.5656 28° Northeast 323 372 7,900 2,520 Climbing FlightAware ADS-B
11:59PM 40.7078 -73.5485 27° Northeast 327 376 8,700 1,980 Climbing FlightAware ADS-B
12:00AM 40.7990 -73.4940 24° Northeast 359 413 10,700 1,560 Climbing FlightAware
12:01AM 40.8730 -73.4510 24° Northeast 402 463 11,600 1,140 Climbing FlightAware
12:02AM 40.9450 -73.4090 24° Northeast 434 499 12,400 1,560 Climbing FlightAware
12:02AM 41.0260 -73.3600 25° Northeast 451 519 13,800 1,920 Climbing FlightAware
12:03AM 41.0990 -73.2970 33° Northeast 465 535 15,100 1,920 Climbing FlightAware
12:04AM 41.1610 -73.2160 45° Northeast 475 547 16,500 1,920 Climbing FlightAware
12:05AM 41.2310 -73.1210 46° Northeast 482 555 17,900 1,920 Climbing FlightAware
12:05AM 41.2940 -73.0350 46° Northeast 489 563 19,200 1,740 Climbing FlightAware
12:06AM 41.3640 -72.9400 46° Northeast 500 575 20,400 1,620 Climbing FlightAware
12:07AM 41.4300 -72.8490 46° Northeast 507 583 21,500 1,080 Climbing FlightAware
12:07AM 41.4890 -72.7660 46° Northeast 509 586 21,900 300 Climbing FlightAware
12:08AM 41.5400 -72.6940 47° Northeast 509 586 21,900  Level FlightAware
12:09AM 41.6050 -72.6000 47° Northeast 509 586 21,900 1,740 Level FlightAware
12:09AM 41.6920 -72.5120 37° Northeast 24,800 2,700 Climbing FlightAware
12:10AM 41.7810 -72.4000 43° Northeast 552 635 25,700 840 Climbing FlightAware
12:12AM 41.9350 -72.2050 43° Northeast 560 644 26,800 1,080 Climbing FlightAware
12:12AM 42.0350 -72.0740 44° Northeast 578 665 28,000 1,380 Climbing FlightAware
12:13AM 42.1090 -71.9800 43° Northeast 584 672 28,700 1,140 Climbing FlightAware
12:14AM 42.2030 -71.8580 44° Northeast 584 672 29,700 1,320 Climbing FlightAware
12:14AM 42.2860 -71.7510 44° Northeast 583 671 30,600 1,020 Climbing FlightAware
12:15AM 42.3475 -71.6481 44° Northeast 579 666 31,100 780 Climbing Boston Center
12:16AM 42.4694 -71.4972 42° Northeast 579 666 32,000 780 Climbing Boston Center
12:17AM 42.5889 -71.3403 44° Northeast 586 674 32,700 480 Climbing Boston Center
12:18AM 42.7061 -71.1828 45° Northeast 586 674 33,000 120 Climbing Boston Center
12:19AM 42.8250 -71.0247 44° Northeast 586 674 33,000  Level Boston Center
12:20AM 42.9419 -70.8661 45° Northeast 586 674 33,000  Level Boston Center
12:21AM 43.0603 -70.7039 45° Northeast 586 674 33,000  Level Boston Center
12:22AM 43.1786 -70.5439 45° Northeast 586 674 33,000  Level Boston Center
12:23AM 43.2947 -70.3861 45° Northeast 581 669 33,000  Level Boston Center
12:24AM 43.4125 -70.2250 45° Northeast 581 669 33,000  Level Boston Center
12:25AM 43.5281 -70.0603 46° Northeast 581 669 33,000  Level Boston Center
12:26AM 43.6433 -69.8981 45° Northeast 581 669 33,000  Level Boston Center
12:27AM 43.7586 -69.7378 45° Northeast 581 669 33,000  Level Boston Center
12:28AM 43.8753 -69.5714 46° Northeast 581 669 33,000  Level Boston Center
12:29AM 43.9900 -69.4100 45° Northeast 581 669 33,000  Level Boston Center
12:30AM 44.1064 -69.2450 45° Northeast 581 669 33,000  Level Boston Center
12:31AM 44.2206 -69.0794 46° Northeast 581 669 33,000  Level Boston Center
12:32AM 44.3364 -68.9133 46° Northeast 581 669 33,000  Level Boston Center
12:33AM 44.4542 -68.7461 45° Northeast 581 669 33,000  Level Boston Center
12:34AM 44.5675 -68.5786 46° Northeast 581 669 33,000  Level Boston Center
12:35AM 44.7000 -68.3667 49° Northeast 600 690 33,000  Level Moncton Center
12:36AM 44.8000 -68.2167 47° Northeast 590 679 33,000  Level Moncton Center
12:37AM 44.9167 -68.0333 48° Northeast 590 679 33,000  Level Moncton Center
12:38AM 45.0333 -67.8833 42° Northeast 590 679 33,000  Level Moncton Center
12:44AM 45.2540 -67.6060 42° Northeast 596 686 33,000  Level FlightAware
12:45AM 45.3120 -67.5190 47° Northeast 596 686 33,000  Level FlightAware
12:46AM 45.8700 -66.6220 48° Northeast 589 678 33,000  Level FlightAware
12:46AM 45.9580 -66.4820 48° Northeast 591 680 33,000  Level FlightAware
12:47AM 46.0280 -66.3700 48° Northeast 590 679 33,000  Level FlightAware
12:48AM 46.1030 -66.2510 48° Northeast 590 679 33,000  Level FlightAware
12:48AM 46.1600 -66.1580 48° Northeast 590 679 33,000  Level FlightAware
12:49AM 46.2350 -66.0390 48° Northeast 590 679 33,000  Level FlightAware
12:50AM 46.2910 -65.9490 48° Northeast 590 679 33,000  Level FlightAware
12:51AM 46.3870 -65.7940 48° Northeast 590 679 33,000  Level FlightAware
12:52AM 46.4860 -65.6340 48° Northeast 590 679 33,000  Level FlightAware
12:53AM 46.6030 -65.4460 48° Northeast 590 679 33,000  Level FlightAware
12:54AM 46.6580 -65.3560 48° Northeast 590 679 33,000  Level FlightAware
12:54AM 46.7210 -65.2550 48° Northeast 590 679 33,000  Level FlightAware
12:55AM 46.8110 -65.1090 48° Northeast 590 679 33,000  Level FlightAware
12:57AM 46.9600 -64.8670 48° Northeast 590 679 33,000  Level FlightAware
12:58AM 47.1833 -64.4333 48° Northeast 600 690 33,000  Level Gander Center
12:58AM 47.2333 -64.3000 61° Northeast 600 690 33,000  Level Gander Center
12:59AM 47.3333 -64.1500 45° Northeast 600 690 33,000  Level Moncton Center
01:00AM 47.4500 -63.9833 44° Northeast 600 690 33,000  Level Moncton Center
01:01AM 47.5500 -63.7833 53° Northeast 600 690 33,000  Level Moncton Center
01:02AM 47.6667 -63.6000 47° Northeast 600 690 33,000  Level Moncton Center
01:03AM 47.7667 -63.4000 53° Northeast 600 690 33,000  Level Moncton Center
01:04AM 47.8667 -63.2167 51° Northeast 590 679 33,000  Level Moncton Center
01:05AM 47.9833 -63.0500 44° Northeast 590 679 33,000  Level Moncton Center
01:06AM 48.0833 -62.8500 53° Northeast 600 690 33,000  Level Moncton Center
01:07AM 48.1833 -62.6667 51° Northeast 590 679 33,000  Level Moncton Center
01:08AM 48.3000 -62.4667 49° Northeast 590 679 33,000  Level Moncton Center
01:09AM 48.4000 -62.2500 55° Northeast 590 679 33,000  Level Moncton Center
01:10AM 48.5000 -62.0667 50° Northeast 600 690 33,000  Level Moncton Center
01:11AM 48.6167 -61.8667 49° Northeast 600 690 33,000  Level Moncton Center
01:12AM 48.7000 -61.6833 55° Northeast 600 690 33,000  Level Moncton Center
01:13AM 48.8167 -61.4667 51° Northeast 600 690 33,000  Level Moncton Center
01:14AM 48.9167 -61.2833 50° Northeast 590 679 33,000  Level Moncton Center
01:15AM 49.0333 -61.0833 48° Northeast 600 690 33,000  Level Moncton Center
01:16AM 49.1167 -60.8667 59° Northeast 590 679 33,000  Level Moncton Center
01:17AM 49.2167 -60.6833 50° Northeast 600 690 33,000  Level Moncton Center
01:18AM 49.3500 -60.4833 44° Northeast 590 679 33,000  Level Moncton Center
01:19AM 49.4667 -60.3500 37° Northeast 590 679 33,000  Level Moncton Center
01:20AM 49.6000 -60.1833 39° Northeast 590 679 33,000  Level Moncton Center
01:21AM 49.7167 -60.0167 43° Northeast 580 667 33,000  Level Moncton Center
01:22AM 49.8333 -59.8333 45° Northeast 590 679 33,000  Level Moncton Center
01:23AM 49.9500 -59.6667 43° Northeast 580 667 33,000  Level Moncton Center
01:24AM 50.0333 -59.4667 57° Northeast 590 679 33,000  Level Moncton Center
01:25AM 50.1333 -59.2500 54° Northeast 580 667 33,000  Level Moncton Center
01:26AM 50.2333 -59.0500 52° Northeast 590 679 33,000  Level Moncton Center
01:27AM 50.3333 -58.8333 54° Northeast 590 679 33,000  Level Moncton Center
01:28AM 50.4167 -58.6333 57° Northeast 590 679 33,000  Level Moncton Center
01:29AM 50.5333 -58.4167 50° Northeast 590 679 33,000  Level Moncton Center
01:30AM 50.6167 -58.2167 57° Northeast 580 667 33,000  Level Moncton Center
01:31AM 50.6833 -58.1167 44° Northeast 590 679 33,000  Level Gander Center
01:31AM 50.7333 -57.9833 59° Northeast 580 667 33,000  Level Gander Center
01:32AM 50.8333 -57.7667 54° Northeast 580 667 33,000  Level Gander Center
01:33AM 50.9000 -57.6000 58° Northeast 590 679 33,000  Level Moncton Center
01:34AM 51.0000 -57.3667 56° Northeast 590 679 33,000  Level Moncton Center
01:35AM 51.0500 -57.2667 51° Northeast 590 679 33,000  Level Gander Center
01:35AM 51.1000 -57.1333 59° Northeast 580 667 33,000 60 Level Gander Center
01:36AM 51.1667 -56.8833 67° East 580 667 33,100 480 Climbing Gander Center
01:37AM 51.2500 -56.6667 58° Northeast 580 667 34,000 480 Climbing Gander Center
01:38AM 51.3000 -56.4667 68° East 570 656 34,000  Level Moncton Center
01:39AM 51.3500 -56.3500 56° Northeast 570 656 34,000  Level Gander Center
01:40AM 51.4333 -56.1000 62° Northeast 570 656 34,000  Level Gander Center
01:40AM 51.4667 -55.9667 68° East 580 667 34,000  Level Gander Center
01:41AM 51.5167 -55.7833 66° East 580 667 34,000  Level Moncton Center
01:42AM 51.5500 -55.6333 70° East 580 667 34,000  Level Gander Center
01:42AM 51.6000 -55.4833 62° Northeast 580 667 34,000  Level Gander Center
01:43AM 51.6333 -55.4000 68° East 590 679 34,000  Level Gander Center
01:43AM 52.2167 -53.3667 68° East 562 647 34,000  Level ETMS Enhanced Traffic Management System
01:43AM 51.6667 -55.2667 68° East 580 667 34,000  Level Gander Center
01:44AM 51.7500 -55.0333 60° Northeast 580 667 34,000  Level Gander Center
01:45AM 51.8167 -54.7833 67° East 590 679 34,000  Level Gander Center
01:46AM 51.8667 -54.5667 69° East 580 667 34,000  Level Gander Center
01:47AM 51.9500 -54.3000 63° Northeast 580 667 34,000  Level Gander Center
01:48AM 52.0000 -54.0833 69° East 590 679 34,000  Level Gander Center
01:49AM 52.0667 -53.8167 68° East 580 667 34,000  Level Gander Center
01:50AM 52.1500 -53.5833 60° Northeast 590 679 34,000  Level Gander Center
01:51AM 52.2000 -53.3667 69° East 580 667 34,000  Level Gander Center
01:52AM 52.2667 -53.1000 68° East 580 667 34,000  Level Gander Center
01:53AM 52.3167 -52.8500 72° East 570 656 34,000  Level Gander Center
01:54AM 52.3667 -52.5833 73° East 580 667 34,000  Level Gander Center
01:55AM 52.4167 -52.3500 71° East 590 679 34,000  Level Gander Center
01:56AM 52.4667 -52.1000 72° East 580 667 34,000  Level Gander Center
01:57AM 52.5167 -51.8333 73° East 580 667 34,000  Level Gander Center
01:58AM 52.5833 -51.6000 65° Northeast 580 667 34,000  Level Gander Center
01:59AM 52.6167 -51.4000 75° East 580 667 34,000  Level Gander Center
02:00AM 52.6833 -51.1333 67° East 580 667 34,000  Level Gander Center
02:01AM 52.7500 -50.9000 65° Northeast 590 679 34,000  Level Gander Center
02:02AM 52.7833 -50.6333 78° East 570 656 34,000  Level Gander Center
02:03AM 52.8500 -50.4000 65° Northeast 570 656 34,000  Level Gander Center
02:04AM 52.9000 -50.1333 73° East 570 656 34,000  Level Gander Center
02:05AM 52.9500 -49.9000 70° East 580 667 34,000  Level Gander Center
02:08AM 53.0165 -49.4620 76° East  Level FlightAware Approximate
02:11AM 53.0000 -50.0000 76° East 570 656 34,000  Level ETMS Enhanced Traffic Management System
02:15AM 53.2595 -47.7462 76° East  Level FlightAware Approximate
02:16AM 53.2922 -47.4995 77° East  Level FlightAware Approximate
02:17AM 53.4055 -46.8955 79° East 570 656 34,000  Level FlightAware Transoceanic
02:18AM 53.4356 -46.6343 79° East 570 656 34,000  Level FlightAware Transoceanic
02:19AM 53.4652 -46.3726 79° East 570 656 34,000  Level FlightAware Transoceanic
02:20AM 53.4942 -46.1106 80° East 570 656 34,000  Level FlightAware Transoceanic
02:21AM 53.5226 -45.8483 80° East 570 656 34,000  Level FlightAware Transoceanic
02:22AM 53.5504 -45.5855 80° East 570 656 34,000  Level FlightAware Transoceanic
02:23AM 53.5777 -45.3225 80° East 570 656 34,000  Level FlightAware Transoceanic
02:24AM 53.6044 -45.0591 80° East 570 656 34,000  Level FlightAware Transoceanic
02:25AM 53.6305 -44.7954 81° East 570 656 34,000  Level FlightAware Transoceanic
02:26AM 53.6560 -44.5314 81° East 570 656 34,000  Level FlightAware Transoceanic
02:27AM 53.6809 -44.2670 81° East 570 656 34,000  Level FlightAware Transoceanic
02:28AM 53.7053 -44.0024 81° East 570 656 34,000  Level FlightAware Transoceanic
02:29AM 53.7291 -43.7374 81° East 570 656 34,000  Level FlightAware Transoceanic
02:30AM 53.7523 -43.4721 82° East 570 656 34,000  Level FlightAware Transoceanic
02:31AM 53.7749 -43.2066 82° East 570 656 34,000  Level FlightAware Transoceanic
02:32AM 53.7969 -42.9408 82° East 570 656 34,000  Level FlightAware Transoceanic
02:33AM 53.8183 -42.6746 82° East 570 656 34,000  Level FlightAware Transoceanic
02:34AM 53.8391 -42.4083 83° East 570 656 34,000  Level FlightAware Transoceanic
02:35AM 53.8594 -42.1416 83° East 570 656 34,000  Level FlightAware Transoceanic
02:36AM 53.8791 -41.8747 83° East 570 656 34,000  Level FlightAware Transoceanic
02:37AM 53.8981 -41.6076 83° East 570 656 34,000  Level FlightAware Transoceanic
02:38AM 53.9166 -41.3402 83° East 570 656 34,000  Level FlightAware Transoceanic
02:39AM 53.9345 -41.0726 84° East 570 656 34,000  Level FlightAware Transoceanic
02:40AM 53.9517 -40.8048 84° East 570 656 34,000  Level FlightAware Transoceanic
02:41AM 53.9684 -40.5367 84° East 570 656 34,000  Level FlightAware Transoceanic
02:42AM 53.9845 -40.2685 84° East 570 656 34,000  Level FlightAware Transoceanic
02:43AM 53.9993 -40.0127 84° East  Level FlightAware Approximate
02:44AM 54.0135 -39.7568 84° East  Level FlightAware Approximate
02:44AM 54.0000 -40.0000 86° East 587 676 34,000  Level ETMS Enhanced Traffic Management System
02:45AM 54.0093 -39.7690 86° East  Level FlightAware Approximate
02:46AM 54.0189 -39.5163 86° East  Level FlightAware Approximate
02:47AM 54.0281 -39.2634 86° East  Level FlightAware Approximate
02:48AM 54.0367 -39.0104 87° East  Level FlightAware Approximate
02:49AM 54.0447 -38.7574 87° East  Level FlightAware Approximate
02:50AM 54.0650 -38.0588 88° East 587 676 34,000  Level FlightAware Transoceanic
02:51AM 54.0717 -37.7810 88° East 587 676 34,000  Level FlightAware Transoceanic
02:52AM 54.0778 -37.5031 88° East 587 676 34,000  Level FlightAware Transoceanic
02:53AM 54.0833 -37.2252 88° East 587 676 34,000  Level FlightAware Transoceanic
02:54AM 54.0881 -36.9472 88° East 587 676 34,000  Level FlightAware Transoceanic
02:55AM 54.0923 -36.6691 89° East 587 676 34,000  Level FlightAware Transoceanic
02:56AM 54.0958 -36.3910 89° East 587 676 34,000  Level FlightAware Transoceanic
02:57AM 54.0987 -36.1129 89° East 587 676 34,000  Level FlightAware Transoceanic
02:58AM 54.1009 -35.8347 89° East 587 676 34,000  Level FlightAware Transoceanic
02:59AM 54.1025 -35.5565 90° East 587 676 34,000  Level FlightAware Transoceanic
03:00AM 54.1035 -35.2782 90° East 587 676 34,000  Level FlightAware Transoceanic
03:01AM 54.1038 -35.0000 90° East 587 676 34,000  Level FlightAware Transoceanic
03:02AM 54.1035 -34.7218 90° East 587 676 34,000  Level FlightAware Transoceanic
03:03AM 54.1025 -34.4435 90° East 587 676 34,000  Level FlightAware Transoceanic
03:04AM 54.1009 -34.1653 91° East 587 676 34,000  Level FlightAware Transoceanic
03:05AM 54.0987 -33.8871 91° East 587 676 34,000  Level FlightAware Transoceanic
03:06AM 54.0958 -33.6090 91° East 587 676 34,000  Level FlightAware Transoceanic
03:07AM 54.0923 -33.3309 91° East 587 676 34,000  Level FlightAware Transoceanic
03:08AM 54.0881 -33.0528 92° East 587 676 34,000  Level FlightAware Transoceanic
03:09AM 54.0833 -32.7748 92° East 587 676 34,000  Level FlightAware Transoceanic
03:10AM 54.0778 -32.4969 92° East 587 676 34,000  Level FlightAware Transoceanic
03:11AM 54.0717 -32.2190 92° East 587 676 34,000  Level FlightAware Transoceanic
03:12AM 54.0650 -31.9412 92° East 587 676 34,000  Level FlightAware Transoceanic
03:13AM 54.0576 -31.6636 93° East 587 676 34,000  Level FlightAware Transoceanic
03:14AM 54.0496 -31.3860 93° East 587 676 34,000  Level FlightAware Transoceanic
03:15AM 54.0410 -31.1085 93° East 587 676 34,000  Level FlightAware Transoceanic
03:16AM 54.0317 -30.8312 93° East 587 676 34,000  Level FlightAware Transoceanic
03:17AM 54.0218 -30.5540 94° East 587 676 34,000  Level FlightAware Transoceanic
03:18AM 54.0112 -30.2769 94° East 587 676 34,000  Level FlightAware Transoceanic
03:19AM 54.0010 -30.0243 94° East  Level FlightAware Approximate
03:20AM 53.9903 -29.7718 94° East  Level FlightAware Approximate
03:21AM 53.9883 -29.7965 95° East  Level FlightAware Approximate
03:22AM 53.9734 -29.5447 96° East  Level FlightAware Approximate
03:22AM 54.0000 -30.0000 95° East 570 656 34,000  Level ETMS Enhanced Traffic Management System
03:23AM 53.9579 -29.2931 96° East  Level FlightAware Approximate
03:24AM 53.9419 -29.0417 96° East  Level FlightAware Approximate
03:25AM 53.9254 -28.7904 96° East  Level FlightAware Approximate
03:26AM 53.9084 -28.5394 96° East  Level FlightAware Approximate
03:27AM 53.8908 -28.2886 97° East  Level FlightAware Approximate
03:28AM 53.8594 -27.8584 97° East 570 656 34,000  Level FlightAware Transoceanic
03:29AM 53.8391 -27.5917 97° East 570 656 34,000  Level FlightAware Transoceanic
03:30AM 53.8183 -27.3253 98° East 570 656 34,000  Level FlightAware Transoceanic
03:31AM 53.7969 -27.0592 98° East 570 656 34,000  Level FlightAware Transoceanic
03:32AM 53.7749 -26.7934 98° East 570 656 34,000  Level FlightAware Transoceanic
03:33AM 53.7523 -26.5279 98° East 570 656 34,000  Level FlightAware Transoceanic
03:34AM 53.7291 -26.2626 99° East 570 656 34,000  Level FlightAware Transoceanic
03:35AM 53.7053 -25.9976 99° East 570 656 34,000  Level FlightAware Transoceanic
03:36AM 53.6809 -25.7330 99° East 570 656 34,000  Level FlightAware Transoceanic
03:37AM 53.6560 -25.4686 99° East 570 656 34,000  Level FlightAware Transoceanic
03:38AM 53.6305 -25.2046 99° East 570 656 34,000  Level FlightAware Transoceanic
03:39AM 53.6044 -24.9409 100° East 570 656 34,000  Level FlightAware Transoceanic
03:40AM 53.5777 -24.6775 100° East 570 656 34,000  Level FlightAware Transoceanic
03:41AM 53.5504 -24.4144 100° East 570 656 34,000  Level FlightAware Transoceanic
03:42AM 53.5226 -24.1518 100° East 570 656 34,000  Level FlightAware Transoceanic
03:43AM 53.4942 -23.8894 100° East 570 656 34,000  Level FlightAware Transoceanic
03:44AM 53.4652 -23.6274 101° East 570 656 34,000  Level FlightAware Transoceanic
03:45AM 53.4356 -23.3657 101° East 570 656 34,000  Level FlightAware Transoceanic
03:46AM 53.4055 -23.1045 101° East 570 656 34,000  Level FlightAware Transoceanic
03:47AM 53.3748 -22.8436 101° East 570 656 34,000  Level FlightAware Transoceanic
03:48AM 53.3436 -22.5831 101° East 570 656 34,000  Level FlightAware Transoceanic
03:49AM 53.3117 -22.3229 102° East 570 656 34,000  Level FlightAware Transoceanic
03:50AM 53.2793 -22.0632 102° East 570 656 34,000  Level FlightAware Transoceanic
03:51AM 53.2464 -21.8038 102° East 570 656 34,000  Level FlightAware Transoceanic
03:52AM 53.2128 -21.5449 102° East 570 656 34,000  Level FlightAware Transoceanic
03:53AM 53.1788 -21.2864 103° East 570 656 34,000  Level FlightAware Transoceanic
03:54AM 53.1441 -21.0282 103° East 570 656 34,000  Level FlightAware Transoceanic
03:55AM 53.1089 -20.7705 103° East 570 656 34,000  Level FlightAware Transoceanic
03:56AM 53.0732 -20.5133 103° East 570 656 34,000  Level FlightAware Transoceanic
03:57AM 53.0369 -20.2564 103° East 570 656 34,000  Level FlightAware Transoceanic
03:58AM 53.0023 -20.0158 103° East  Level FlightAware Approximate
03:59AM 52.9672 -19.7756 104° East  Level FlightAware Approximate
04:00AM 52.9993 -19.7852 90° East  Level FlightAware Approximate
04:01AM 52.9980 -19.5379 90° East  Level FlightAware Approximate
04:02AM 52.9963 -19.2906 91° East  Level FlightAware Approximate
04:03AM 52.9939 -19.0434 91° East  Level FlightAware Approximate
04:04AM 52.9911 -18.7962 91° East  Level FlightAware Approximate
04:05AM 52.9878 -18.5490 91° East  Level FlightAware Approximate
04:06AM 52.9840 -18.3019 91° East  Level FlightAware Approximate
04:07AM 52.9796 -18.0548 92° East  Level FlightAware Approximate
04:08AM 52.9748 -17.8078 92° East  Level FlightAware Approximate
04:09AM 52.9694 -17.5608 92° East  Level FlightAware Approximate
04:10AM 52.9635 -17.3139 92° East  Level FlightAware Approximate
04:11AM 52.9571 -17.0671 92° East  Level FlightAware Approximate
04:12AM 52.9502 -16.8203 93° East  Level FlightAware Approximate
04:13AM 52.9428 -16.5736 93° East  Level FlightAware Approximate
04:14AM 52.9348 -16.3270 93° East  Level FlightAware Approximate
04:15AM 52.9264 -16.0805 93° East  Level FlightAware Approximate
04:16AM 52.9174 -15.8341 93° East  Level FlightAware Approximate
04:17AM 52.9080 -15.5878 94° East  Level FlightAware Approximate
04:18AM 52.8980 -15.3416 94° East  Level FlightAware Approximate
04:19AM 52.8875 -15.0956 94° East  Level FlightAware Approximate
04:20AM 52.8774 -14.8495 94° East  Level FlightAware Approximate
04:21AM 52.8672 -14.6035 94° East  Level FlightAware Approximate
04:22AM 52.8565 -14.3577 94° East  Level FlightAware Approximate
04:23AM 52.8453 -14.1119 94° East  Level FlightAware Approximate
04:24AM 52.8336 -13.8663 94° East  Level FlightAware Approximate
04:25AM 52.8214 -13.6208 95° East  Level FlightAware Approximate
04:25AM 52.8990 -13.0580 95° East 540 621 35,000  Level FlightAware
04:26AM 52.8087 -13.3755 95° East  Level FlightAware Approximate
04:26AM 52.8870 -12.8900 97° East 541 623 35,000  Level FlightAware
04:27AM 52.8720 -12.7030 97° East 541 623 35,000  Level FlightAware
04:27AM 52.8590 -12.5440 98° East 539 620 35,000  Level FlightAware
04:28AM 52.8460 -12.3790 97° East 539 620 35,000  Level FlightAware
04:29AM 52.8320 -12.2140 98° East 540 621 35,000  Level FlightAware
04:29AM 52.8180 -12.0280 97° East 540 621 35,000  Level FlightAware
04:32AM 52.7731 -11.4875 98° East  Level FlightAware Approximate
04:33AM 52.7520 -11.2440 98° East  Level FlightAware Approximate
04:34AM 52.7305 -11.0008 98° East  Level FlightAware Approximate
04:34AM 52.7320 -10.9880 98° East 542 624 35,000  Level FlightAware
04:34AM 52.7130 -10.7850 99° East 540 621 35,000  Level FlightAware
04:35AM 52.6970 -10.6200 99° East 537 618 35,000  Level FlightAware
04:36AM 52.6760 -10.4000 99° East 536 617 35,000  Level FlightAware
04:37AM 52.6580 -10.2200 99° East 536 617 35,000  Level FlightAware
04:37AM 52.6410 -10.0570 100° East 536 617 35,000  Level FlightAware
04:38AM 52.6250 -9.8990 99° East 536 617 35,000  Level FlightAware
04:39AM 52.6060 -9.7200 100° East 536 617 35,000  Level FlightAware
04:39AM 52.5880 -9.5550 100° East 536 617 35,000  Level FlightAware
04:40AM 52.5640 -9.3350 100° East 536 617 35,000  Level FlightAware
04:41AM 52.5440 -9.1520 100° East 538 619 35,000  Level FlightAware
04:42AM 52.5270 -8.9930 100° East 537 618 35,000  Level FlightAware
04:42AM 52.4963 -8.8467 100° East 494 568 35,000  Level FlightAware UK
04:43AM 52.5070 -8.8160 100° East 535 616 35,000  Level FlightAware
04:43AM 52.4880 -8.6510 101° East 533 613 35,000  Level FlightAware
04:44AM 52.4552 -8.4888 101° East 494 568 35,000  Level FlightAware UK
04:44AM 52.4700 -8.4980 101° East 533 613 35,000  Level FlightAware
04:45AM 52.4267 -8.2511 101° East 496 571 35,000  Level FlightAware UK
04:45AM 52.4124 -8.1327 101° East 496 571 35,000  Level FlightAware UK
04:46AM 52.3981 -8.0148 101° East 492 566 35,000  Level FlightAware UK
04:46AM 52.3834 -7.8978 102° East 490 564 35,000  Level FlightAware UK
04:47AM 52.3688 -7.7809 101° East 494 568 35,000  Level FlightAware UK
04:47AM 52.3513 -7.6407 101° East 492 566 35,000  Level FlightAware UK
04:48AM 52.3367 -7.5240 102° East 488 562 35,000  Level FlightAware UK
04:48AM 52.3220 -7.4076 102° East 490 564 35,000  Level FlightAware UK
04:49AM 52.3350 -7.3980 102° East 526 605 35,000  Level FlightAware
04:49AM 52.3080 -7.1910 102° East 528 608 35,000  Level FlightAware
04:50AM 52.2766 -7.0568 102° East 490 564 35,000  Level FlightAware UK
04:50AM 52.2900 -7.0520 102° East 528 608 35,000  Level FlightAware
04:51AM 52.2690 -6.8920 102° East 528 608 35,000  Level FlightAware
04:51AM 52.2490 -6.7500 103° East 529 609 35,000  Level FlightAware
04:52AM 52.2148 -6.5887 103° East 492 566 35,000  Level FlightAware UK
04:52AM 52.2290 -6.5990 103° East 529 609 35,000  Level FlightAware
04:53AM 52.2010 -6.3900 102° East 529 609 35,000  Level FlightAware
04:53AM 52.1674 -6.2384 102° East 492 566 35,000  Level FlightAware UK
04:54AM 52.1750 -6.2030 102° East 531 611 35,000  Level FlightAware
04:54AM 52.1520 -6.0410 103° East 531 611 35,000  Level FlightAware
04:55AM 52.1390 -5.8980 103° East 533 613 35,000  Level FlightAware
04:55AM 52.1256 -5.8845 103° East 494 568 35,000  Level FlightAware UK
04:55AM 52.1163 -5.7650 103° East 494 568 35,000  Level FlightAware UK
04:56AM 52.1250 -5.7230 103° East 533 613 35,000  Level FlightAware
04:56AM 52.1120 -5.5620 103° East 535 616 35,000  Level FlightAware
04:56AM 52.0971 -5.5263 103° East 494 568 35,000  Level FlightAware UK
04:57AM 52.0865 -5.4071 103° East 494 568 35,000  Level FlightAware UK
04:57AM 52.0950 -5.3710 103° East 535 616 35,000  Level FlightAware
04:58AM 52.0800 -5.2130 99° East 535 616 35,000  Level FlightAware
04:59AM 52.0650 -5.0440 98° East 536 617 35,000  Level FlightAware
04:59AM 52.0460 -4.8730 100° East 535 616 35,000  Level FlightAware
05:00AM 52.0270 -4.7150 101° East 535 616 35,000  Level FlightAware
05:01AM 52.0097 -4.5715 101° East 535 616 35,000  Level FlightAware ADS-B
05:01AM 51.9938 -4.4408 101° East 534 615 35,000  Level FlightAware ADS-B
05:02AM 51.9772 -4.3085 101° East 535 616 35,000  Level FlightAware ADS-B
05:02AM 51.9594 -4.1675 102° East 535 616 35,000  Level FlightAware ADS-B
05:03AM 51.9435 -4.0427 102° East 535 616 35,000  Level FlightAware ADS-B
05:03AM 51.9270 -3.9185 102° East 535 616 35,000  Level FlightAware ADS-B
05:04AM 51.9030 -3.7170 101° East 536 617 35,000  Level FlightAware
05:04AM 51.8954 -3.6316 98° East 537 618 35,000  Level FlightAware ADS-B
05:05AM 51.8692 -3.4155 98° East 494 568 35,000  Level FlightAware UK
05:06AM 51.8743 -3.3853 98° East 537 618 35,000  Level FlightAware ADS-B
05:06AM 51.8590 -3.2110 98° East 536 617 35,000  Level FlightAware
05:07AM 51.8539 -3.1496 98° East 536 617 35,000  Level FlightAware ADS-B
05:07AM 51.8420 -3.0122 98° East 535 616 35,000  Level FlightAware ADS-B
05:08AM 51.8314 -2.8898 98° East 534 615 35,000  Level FlightAware ADS-B
05:08AM 51.8207 -2.7693 98° East 533 613 35,000  Level FlightAware ADS-B
05:09AM 51.8099 -2.6508 98° East 532 612 35,000  Level FlightAware ADS-B
05:09AM 51.7977 -2.5182 98° East 531 611 35,000  Level FlightAware ADS-B
05:10AM 51.7860 -2.3938 99° East 531 611 35,000  Level FlightAware ADS-B
05:10AM 51.7745 -2.2743 99° East 531 611 35,000  Level FlightAware ADS-B
05:11AM 51.7612 -2.1369 99° East 532 612 35,000  Level FlightAware ADS-B
05:11AM 51.7484 -2.0090 99° East 531 611 35,000  Level FlightAware ADS-B
05:12AM 51.7366 -1.8906 99° East 531 611 35,000  Level FlightAware ADS-B
05:12AM 51.7247 -1.7732 99° East 530 610 35,000  Level FlightAware ADS-B
05:13AM 51.7129 -1.6560 99° East 530 610 35,000  Level FlightAware ADS-B
05:13AM 51.7011 -1.5384 99° East 530 610 35,000  Level FlightAware ADS-B
05:14AM 51.6889 -1.4216 100° East 530 610 35,000  Level FlightAware ADS-B
05:14AM 51.6766 -1.3037 100° East 531 611 35,000  Level FlightAware ADS-B
05:15AM 51.6623 -1.1866 101° East 532 612 35,000  Level FlightAware ADS-B
05:15AM 51.6461 -1.0677 102° East 531 611 35,000  Level FlightAware ADS-B
05:16AM 51.6295 -0.9457 102° East 532 612 35,000  Level FlightAware ADS-B
05:16AM 51.6133 -0.8270 102° East 533 613 35,000  Level FlightAware ADS-B
05:17AM 51.5964 -0.7037 102° East 533 613 35,000  Level FlightAware ADS-B
05:17AM 51.5807 -0.5874 102° East 534 615 35,000  Level FlightAware ADS-B
05:18AM 51.5645 -0.4687 102° East 534 615 35,000  Level FlightAware ADS-B
05:19AM 51.5468 -0.3383 102° East 535 616 35,000  Level FlightAware ADS-B
05:19AM 51.5304 -0.2206 103° East 535 616 35,000  Level FlightAware ADS-B
05:20AM 51.5134 -0.0982 103° East 535 616 35,000  Level FlightAware ADS-B
05:20AM 51.4970 0.0182 103° East 535 616 35,000  Level FlightAware ADS-B
05:21AM 51.4801 0.1376 103° East 535 616 35,000  Level FlightAware ADS-B
05:21AM 51.4634 0.2544 103° East 536 617 35,000  Level FlightAware ADS-B
05:22AM 51.4377 0.4317 103° East 537 618 35,000  Level FlightAware ADS-B
05:22AM 51.4191 0.5588 103° East 537 618 35,000  Level FlightAware ADS-B
05:23AM 51.4020 0.6765 103° East 538 619 35,000  Level FlightAware ADS-B
05:23AM 51.3845 0.7957 103° East 537 618 35,000  Level FlightAware ADS-B
05:24AM 51.3670 0.9136 103° East 537 618 35,000  Level FlightAware ADS-B
05:25AM 51.3413 1.0854 103° East 537 618 35,000  Level FlightAware ADS-B
05:25AM 51.3217 1.2215 103° East 492 566 35,000  Level FlightAware UK
05:26AM 51.3043 1.3368 104° East 492 566 35,000  Level FlightAware UK
05:26AM 51.3060 1.3150 104° East 537 618 35,000  Level FlightAware
05:26AM 51.2790 1.4910 104° East 538 619 35,000  Level FlightAware
05:27AM 51.2540 1.6530 104° East 538 619 35,000  Level FlightAware
05:28AM 51.2340 1.7830 104° East 537 618 35,000  Level FlightAware
05:29AM 51.2030 1.9640 105° East 539 620 35,000  Level FlightAware
05:29AM 51.1881 2.0139 115° Southeast 539 620 35,000  Level FlightAware ADS-B
05:29AM 51.1524 2.1262 117° Southeast 541 623 35,000  Level FlightAware ADS-B
05:30AM 51.1185 2.2365 116° Southeast 541 623 35,000  Level FlightAware ADS-B
05:30AM 51.0746 2.3826 116° Southeast 541 623 35,000  Level FlightAware ADS-B
05:31AM 51.0242 2.5639 116° Southeast 494 568 35,000  Level FlightAware UK
05:32AM 50.9925 2.6724 115° Southeast 494 568 35,000  Level FlightAware UK
05:32AM 50.9520 2.7998 117° Southeast 494 568 35,000  Level FlightAware UK
05:33AM 50.9310 2.8550 117° Southeast 541 623 35,000  Level FlightAware
05:34AM 50.8510 3.1070 117° Southeast 542 624 35,000  Level FlightAware
05:35AM 50.8020 3.2620 117° Southeast 541 623 35,000  Level FlightAware
05:35AM 50.7620 3.3925 117° Southeast 494 568 35,000  Level FlightAware UK
05:35AM 50.7460 3.4370 117° Southeast 541 623 35,000  Level FlightAware
05:36AM 50.6870 3.6239 117° Southeast 494 568 35,000  Level FlightAware UK
05:36AM 50.6760 3.6530 117° Southeast 541 623 35,000  Level FlightAware
05:37AM 50.6310 3.7900 117° Southeast 540 621 35,000  Level FlightAware
05:38AM 50.5834 3.9377 117° Southeast 496 571 35,000  Level FlightAware UK
05:38AM 50.5810 3.9410 117° Southeast 540 621 35,000  Level FlightAware
05:38AM 50.5350 4.0839 117° Southeast 496 571 35,000  Level FlightAware UK
05:39AM 50.5370 4.0740 117° Southeast 539 620 35,000  Level FlightAware
05:39AM 50.4830 4.2350 118° Southeast 539 620 35,000  Level FlightAware
05:40AM 50.4420 4.3560 118° Southeast 538 619 35,000  Level FlightAware
05:40AM 50.4299 4.3949 118° Southeast 1 1 35,000  Level FlightAware UK
05:40AM 50.3952 4.4983 118° Southeast 1 1 35,000  Level FlightAware UK
05:41AM 50.3660 4.5790 118° Southeast 536 617 35,000  Level FlightAware
05:42AM 50.3220 4.7100 118° Southeast 535 616 35,000  Level FlightAware
05:42AM 50.2720 4.8550 118° Southeast 535 616 35,000  Level FlightAware
05:43AM 50.2210 5.0060 118° Southeast 534 615 35,000  Level FlightAware
05:44AM 50.1760 5.1360 118° Southeast 532 612 35,000  Level FlightAware
05:44AM 50.1270 5.2790 118° Southeast 531 611 35,000  Level FlightAware
05:45AM 50.0860 5.3970 118° Southeast 531 611 35,000  Level FlightAware
05:46AM 50.0150 5.6020 118° Southeast 529 609 35,000  Level FlightAware
05:47AM 49.9560 5.7670 119° Southeast 527 606 35,000  Level FlightAware
05:47AM 49.9110 5.8930 119° Southeast 527 606 35,000  Level FlightAware
05:48AM 49.8640 6.0260 119° Southeast 527 606 35,000  Level FlightAware
05:49AM 49.8180 6.1540 119° Southeast 528 608 35,000  Level FlightAware
05:49AM 49.7650 6.3010 119° Southeast 528 608 35,000  Level FlightAware
05:50AM 49.7120 6.4480 119° Southeast 527 606 35,000  Level FlightAware
05:51AM 49.6590 6.5920 120° Southeast 528 608 35,000  Level FlightAware
05:52AM 49.6060 6.7390 119° Southeast 528 608 35,000  Level FlightAware
05:52AM 49.5570 6.8720 120° Southeast 528 608 35,000  Level FlightAware
05:53AM 49.5050 7.0110 120° Southeast 528 608 35,000  Level FlightAware
05:54AM 49.4540 7.1380 122° Southeast 528 608 35,000  Level FlightAware
05:54AM 49.3960 7.2660 125° Southeast 528 608 35,000  Level FlightAware
05:55AM 49.3340 7.3920 127° Southeast 528 608 35,000  Level FlightAware
05:56AM 49.2730 7.5140 127° Southeast 528 608 35,000  Level FlightAware
05:57AM 49.2050 7.6500 127° Southeast 528 608 35,000  Level FlightAware
05:57AM 49.1480 7.7660 127° Southeast 528 608 35,000  Level FlightAware
05:58AM 49.0850 7.8930 127° Southeast 528 608 35,000  Level FlightAware
05:59AM 49.0230 8.0170 127° Southeast 529 609 35,000  Level FlightAware
05:59AM 48.9600 8.1410 128° Southeast 529 609 35,000  Level FlightAware
06:00AM 48.9080 8.2430 128° Southeast 530 610 35,000  Level FlightAware
06:01AM 48.8380 8.3810 128° Southeast 530 610 35,000  Level FlightAware
06:02AM 48.7390 8.5740 128° Southeast 530 610 35,000  Level FlightAware
06:03AM 48.6640 8.7210 128° Southeast 532 612 35,000  Level FlightAware
06:03AM 48.6030 8.8380 128° Southeast 532 612 35,000  Level FlightAware
06:04AM 48.5350 8.9670 128° Southeast 532 612 35,000  Level FlightAware
06:05AM 48.4810 9.0690 129° Southeast 532 612 35,000  Level FlightAware
06:05AM 48.4150 9.1940 128° Southeast 532 612 35,000  Level FlightAware
06:06AM 48.3450 9.3260 129° Southeast 533 613 35,000  Level FlightAware
06:07AM 48.2830 9.4380 130° Southeast 532 612 35,000  Level FlightAware
06:07AM 48.2250 9.5240 135° Southeast 532 612 35,000  Level FlightAware
06:08AM 48.1480 9.6210 140° Southeast 526 605 35,000  Level FlightAware
06:09AM 48.0680 9.7040 145° Southeast 526 605 35,000  Level FlightAware
06:10AM 47.9590 9.8180 145° Southeast 534 615 35,000  Level FlightAware
06:10AM 47.8820 9.8990 145° Southeast 535 616 35,000  Level FlightAware
06:11AM 47.7580 10.0280 145° Southeast 538 619 35,000  Level FlightAware
06:12AM 47.6430 10.1440 146° Southeast 538 619 35,000  Level FlightAware
06:13AM 47.5260 10.2610 146° Southeast 533 613 35,000  Level FlightAware
06:14AM 47.4460 10.3430 145° Southeast 541 623 35,000  Level FlightAware
06:14AM 47.3620 10.4260 146° Southeast 542 624 35,000  Level FlightAware
06:18AM 47.1263 11.0046 121° Southeast  Level Estimated
06:19AM 47.0493 11.1911 121° Southeast  Level Estimated
06:20AM 46.9719 11.3771 121° Southeast  Level Estimated
06:21AM 46.8943 11.5626 121° Southeast  Level Estimated
06:22AM 46.8163 11.7476 122° Southeast  Level Estimated
06:23AM 46.7380 11.9319 122° Southeast  Level Estimated
06:24AM 46.6595 12.1158 122° Southeast  Level Estimated
06:25AM 46.5807 12.2991 122° Southeast  Level Estimated
06:26AM 46.5015 12.4819 122° Southeast  Level Estimated
06:27AM 46.4221 12.6642 122° Southeast  Level Estimated
06:28AM 46.3424 12.8459 122° Southeast  Level Estimated
06:29AM 46.2624 13.0271 123° Southeast  Level Estimated
06:30AM 46.1821 13.2078 123° Southeast  Level Estimated
06:30AM 45.9090 12.4640 123° Southeast 544 626 35,000  Level FlightAware
06:30AM 45.6670 12.8100 135° Southeast 536 617 35,000  Level FlightAware
06:31AM 45.5980 12.9130 134° Southeast 536 617 35,000  Level FlightAware
06:32AM 45.5130 13.0370 134° Southeast 533 613 35,000  Level FlightAware
06:33AM 45.4170 13.1770 134° Southeast 536 617 35,000  Level FlightAware
06:33AM 45.3470 13.2790 134° Southeast 537 618 35,000  Level FlightAware
06:34AM 45.2700 13.3900 135° Southeast 539 620 35,000  Level FlightAware
06:36AM 45.0730 13.6740 134° Southeast 545 627 35,000  Level FlightAware
06:38AM 44.8350 14.0380 133° Southeast 535 616 35,000  Level FlightAware
06:40AM 44.6660 14.3520 127° Southeast 534 615 35,000  Level FlightAware
06:42AM 44.4890 14.6870 126° Southeast 539 620 35,000  Level FlightAware
06:43AM 44.4000 14.8550 127° Southeast 540 621 35,000  Level FlightAware
06:44AM 44.3160 15.0120 127° Southeast 542 624 35,000  Level FlightAware
06:45AM 44.2540 15.1280 127° Southeast 542 624 35,000  Level FlightAware
06:45AM 44.1930 15.2400 127° Southeast 541 623 35,000  Level FlightAware
06:47AM 44.0680 15.4720 127° Southeast 538 619 35,000  Level FlightAware
06:48AM 43.9820 15.6300 127° Southeast 537 618 35,000  Level FlightAware
06:48AM 43.9160 15.7500 127° Southeast 538 619 35,000  Level FlightAware
06:49AM 43.8480 15.8730 127° Southeast 543 625 35,000  Level FlightAware
06:50AM 43.7840 15.9870 128° Southeast 543 625 35,000 180 Level FlightAware
06:51AM 43.6840 16.1680 127° Southeast 545 627 35,400 780 Climbing FlightAware
06:52AM 43.6130 16.2940 128° Southeast 545 627 36,500 1,080 Climbing FlightAware
06:52AM 43.5480 16.4090 128° Southeast 544 626 37,000 360 Climbing FlightAware
06:53AM 43.4890 16.5140 128° Southeast 542 624 37,000  Level FlightAware
06:54AM 43.4210 16.6340 128° Southeast 540 621 37,000  Level FlightAware
06:54AM 43.3620 16.7380 128° Southeast 535 616 37,000  Level FlightAware
06:55AM 43.2990 16.8490 128° Southeast 536 617 37,000  Level FlightAware
06:56AM 43.2390 16.9550 128° Southeast 541 623 37,000  Level FlightAware
06:56AM 43.1750 17.0660 128° Southeast 537 618 37,000  Level FlightAware
06:57AM 43.1050 17.1870 128° Southeast 543 625 37,000  Level FlightAware
06:58AM 42.9870 17.3920 128° Southeast 537 618 37,000  Level FlightAware
06:59AM 42.9380 17.4760 129° Southeast 535 616 37,000  Level FlightAware
07:00AM 42.8680 17.6110 125° Southeast 531 611 37,000  Level FlightAware
07:00AM 42.8130 17.7290 122° Southeast 530 610 37,000  Level FlightAware
07:01AM 42.7610 17.8390 123° Southeast 529 609 37,000  Level FlightAware
07:02AM 42.6920 17.9850 123° Southeast 522 601 37,000  Level FlightAware
07:03AM 42.6220 18.1280 124° Southeast 527 606 37,000  Level FlightAware
07:04AM 42.5600 18.2290 130° Southeast 528 608 37,000  Level FlightAware
07:04AM 42.4890 18.3310 133° Southeast 528 608 37,000  Level FlightAware
07:05AM 42.3870 18.4700 135° Southeast 529 609 37,000  Level FlightAware
07:06AM 42.3160 18.5680 134° Southeast 530 610 37,000  Level FlightAware
07:07AM 42.2520 18.6570 134° Southeast 530 610 37,000  Level FlightAware
07:07AM 42.1810 18.7540 135° Southeast 530 610 37,000  Level FlightAware
07:08AM 42.0960 18.8700 135° Southeast 530 610 37,000  Level FlightAware
07:09AM 42.0300 18.9600 135° Southeast 529 609 37,000  Level FlightAware
07:09AM 41.9580 19.0590 134° Southeast 528 608 37,000  Level FlightAware
07:10AM 41.8930 19.1480 134° Southeast 528 608 37,000  Level FlightAware
07:11AM 41.8260 19.2390 135° Southeast 527 606 37,000  Level FlightAware
07:12AM 41.7160 19.3760 137° Southeast 525 604 37,000  Level FlightAware
07:12AM 41.6340 19.4690 140° Southeast 524 603 37,000  Level FlightAware
07:13AM 41.5570 19.5630 138° Southeast 526 605 37,000  Level FlightAware
07:14AM 41.4860 19.6610 134° Southeast 526 605 37,000  Level FlightAware
07:14AM 41.4250 19.7450 134° Southeast 526 605 37,000  Level FlightAware
07:17AM 41.2544 20.0924 123° Southeast  Level Estimated
07:18AM 41.1721 20.2586 123° Southeast  Level Estimated
07:18AM 41.1370 20.1270 123° Southeast 526 605 37,000  Level FlightAware
07:19AM 41.0896 20.4243 123° Southeast  Level Estimated
07:21AM 40.9161 20.5753 123° Southeast  Level Estimated
07:22AM 40.8338 20.7406 123° Southeast  Level Estimated
07:23AM 40.7513 20.9054 123° Southeast  Level Estimated
07:24AM 40.6685 21.0699 124° Southeast  Level Estimated
07:25AM 40.5856 21.2339 124° Southeast  Level Estimated
07:26AM 40.5024 21.3976 124° Southeast  Level Estimated
07:27AM 40.4189 21.5608 124° Southeast  Level Estimated
07:28AM 40.3353 21.7236 124° Southeast  Level Estimated
07:28AM 40.1690 21.3850 124° Southeast 524 603 37,000  Level FlightAware
07:29AM 40.2514 21.8860 124° Southeast  Level Estimated
07:29AM 39.9120 21.7550 132° Southeast 524 603 37,000  Level FlightAware
07:30AM 39.8230 21.8850 132° Southeast 525 604 37,000  Level FlightAware
07:31AM 39.7580 21.9790 132° Southeast 526 605 37,000  Level FlightAware
07:32AM 39.6660 22.1110 132° Southeast 528 608 37,000  Level FlightAware
07:33AM 39.5770 22.2400 132° Southeast 528 608 37,000  Level FlightAware
07:33AM 39.5050 22.3420 132° Southeast 527 606 37,000  Level FlightAware
07:34AM 39.4330 22.4450 132° Southeast 526 605 37,000  Level FlightAware
07:37AM 39.2458 22.8222 123° Southeast  Level Estimated
07:37AM 39.1050 22.9030 123° Southeast 527 606 37,000  Level FlightAware
07:38AM 39.1647 22.9844 123° Southeast  Level Estimated
07:38AM 39.0430 23.0120 126° Southeast 534 615 37,000  Level FlightAware
07:39AM 38.9800 23.1250 126° Southeast 532 612 37,000  Level FlightAware
07:40AM 38.9170 23.2350 126° Southeast 531 611 37,000  Level FlightAware
07:40AM 38.8450 23.3570 127° Southeast 532 612 37,000  Level FlightAware
07:41AM 38.7790 23.4680 127° Southeast 532 612 37,000  Level FlightAware
07:42AM 38.7020 23.5990 127° Southeast 532 612 37,000  Level FlightAware
07:43AM 38.6340 23.7130 127° Southeast 532 612 37,000  Level FlightAware
07:44AM 38.5200 23.9040 127° Southeast 529 609 37,000  Level FlightAware
07:44AM 38.4840 23.9630 128° Southeast 528 608 37,000  Level FlightAware
07:48AM 38.2362 24.4517 123° Southeast  Level Estimated
07:49AM 38.1545 24.6112 123° Southeast  Level Estimated
07:50AM 38.0726 24.7703 123° Southeast  Level Estimated
07:51AM 37.9905 24.9291 123° Southeast  Level Estimated
07:52AM 37.9082 25.0876 123° Southeast  Level Estimated
07:53AM 37.8256 25.2456 123° Southeast  Level Estimated
07:54AM 37.7429 25.4034 124° Southeast  Level Estimated
07:55AM 37.6599 25.5607 124° Southeast  Level Estimated
07:56AM 37.5768 25.7178 124° Southeast  Level Estimated
07:57AM 37.4934 25.8744 124° Southeast  Level Estimated
07:58AM 37.4098 26.0307 124° Southeast  Level Estimated
07:59AM 37.3260 26.1867 124° Southeast  Level Estimated
08:00AM 37.2420 26.3423 124° Southeast  Level Estimated
08:00AM 37.1010 26.2320 124° Southeast 514 592 37,000  Level FlightAware
08:01AM 37.1578 26.4976 124° Southeast  Level Estimated
08:01AM 37.0190 26.3590 129° Southeast 514 592 37,000  Level FlightAware
08:02AM 36.9650 26.4450 128° Southeast 514 592 37,000  Level FlightAware
08:03AM 36.8560 26.6150 129° Southeast 513 590 37,000  Level FlightAware
08:05AM 36.7030 26.8530 129° Southeast 511 588 37,000  Level FlightAware
08:06AM 36.6090 26.9980 129° Southeast 510 587 37,000  Level FlightAware
08:08AM 36.4648 27.2737 123° Southeast  Level Estimated
08:08AM 36.4360 27.2650 123° Southeast 509 586 37,000  Level FlightAware
08:08AM 36.3820 27.3480 129° Southeast 508 585 37,000  Level FlightAware
08:11AM 36.2013 27.6931 123° Southeast  Level Estimated
08:12AM 36.1195 27.8482 123° Southeast  Level Estimated
08:12AM 36.1130 27.7650 123° Southeast 499 574 37,000  Level FlightAware
08:13AM 36.0290 27.8900 130° Southeast 498 573 37,000  Level FlightAware
08:13AM 35.9970 27.9370 130° Southeast 498 573 37,000  Level FlightAware
08:14AM 35.8800 28.1120 129° Southeast 501 577 37,000  Level FlightAware
08:15AM 35.8280 28.1920 129° Southeast 501 577 37,000  Level FlightAware
08:17AM 35.6811 28.4738 123° Southeast  Level Estimated
08:17AM 35.6680 28.4340 123° Southeast 501 577 37,000  Level FlightAware
08:20AM 35.4420 28.8675 123° Southeast  Level Estimated
08:21AM 35.3608 29.0218 123° Southeast  Level Estimated
08:22AM 35.2795 29.1757 123° Southeast  Level Estimated
08:22AM 35.1470 29.1950 123° Southeast 501 577 37,000  Level FlightAware
08:23AM 35.1980 29.3294 123° Southeast  Level Estimated
08:23AM 35.0990 29.2680 129° Southeast 501 577 37,000  Level FlightAware
08:24AM 34.9870 29.4270 131° Southeast 504 580 37,000  Level FlightAware
08:25AM 34.9440 29.4900 130° Southeast 504 580 37,000  Level FlightAware
08:26AM 34.8420 29.6370 130° Southeast 502 578 37,000  Level FlightAware
08:26AM 34.7970 29.7010 131° Southeast 502 578 37,000  Level FlightAware
08:29AM 34.6160 30.0606 121° Southeast  Level Estimated
08:29AM 34.5950 29.9920 121° Southeast 503 579 37,000  Level FlightAware
08:29AM 34.5350 30.1100 122° Southeast 514 592 37,000  Level FlightAware
08:30AM 34.4820 30.2210 120° Southeast 516 594 37,000  Level FlightAware
08:31AM 34.3790 30.4360 120° Southeast 516 594 37,000  Level FlightAware
08:32AM 34.3360 30.5270 120° Southeast 517 595 37,000  Level FlightAware
08:34AM 34.1880 30.8310 120° Southeast 515 593 37,000  Level FlightAware
08:35AM 34.1420 30.9280 120° Southeast 515 593 37,000  Level FlightAware
08:35AM 34.0990 31.0150 121° Southeast 514 592 37,000  Level FlightAware
08:36AM 34.0470 31.1220 120° Southeast 515 593 37,000  Level FlightAware
08:37AM 33.9750 31.2680 121° Southeast 515 593 37,000  Level FlightAware
08:38AM 33.9260 31.3680 121° Southeast 515 593 37,000  Level FlightAware
08:39AM 33.8420 31.5390 121° Southeast 514 592 37,000  Level FlightAware
08:39AM 33.7940 31.6380 120° Southeast 513 590 37,000  Level FlightAware
08:40AM 33.7390 31.7490 121° Southeast 513 590 37,000  Level FlightAware
08:41AM 33.6880 31.8520 121° Southeast 513 590 37,000  Level FlightAware
08:42AM 33.6390 31.9510 121° Southeast 513 590 37,000  Level FlightAware
08:43AM 33.5670 32.0950 121° Southeast 508 585 37,000  Level FlightAware
08:43AM 33.5180 32.1920 121° Southeast 507 583 37,000  Level FlightAware
08:44AM 33.4620 32.3030 121° Southeast 506 582 37,000  Level FlightAware
08:44AM 33.4340 32.3590 121° Southeast 507 583 37,000 -1,680 Level FlightAware
08:48AM 33.3029 32.8886 106° East  Level FlightAware Approximate
08:49AM 33.2124 33.0312 131° Southeast  Level Estimated
08:50AM 33.1218 33.1734 132° Southeast  Level Estimated
08:51AM 33.0311 33.3153 127° Southeast  Level Estimated
08:52AM 32.9402 33.4570 129° Southeast  Level Estimated
08:53AM 32.8471 33.5965 128° Southeast  Level FlightAware Approximate
08:53AM 32.8400 33.5160 130° Southeast 431 496 21,500  Level FlightAware
08:54AM 32.7561 33.7378 130° Southeast  Level Estimated
08:54AM 32.7880 33.6170 121° Southeast 415 478 19,900  Level FlightAware
08:55AM 32.7160 33.7560 122° Southeast 391 450 17,600 -2,160 Descending FlightAware
08:56AM 32.6740 33.8360 122° Southeast 379 436 16,300 -1,740 Descending FlightAware
08:57AM 32.6380 33.9050 122° Southeast 369 425 15,200 -1,740 Descending FlightAware
08:57AM 32.6040 33.9690 122° Southeast 358 412 14,100 -1,740 Descending FlightAware
08:58AM 32.5540 34.0650 122° Southeast 344 396 12,500 -1,740 Descending FlightAware
09:00AM 32.4740 34.1950 126° Southeast 337 388 10,000 -1,800 Descending FlightAware
09:00AM 32.4480 34.2250 136° Southeast 338 389 9,200 -540 Descending FlightAware
09:01AM 32.3790 34.3100 134° Southeast 338 389 9,200  Level FlightAware
09:04AM 32.1526 34.5958 126° Southeast  Level FlightAware Approximate
09:05AM 32.0676 34.7393 115° Southeast  Level FlightAware Approximate
09:06AM 32.0000 34.8667 125° Southeast  Level FlightAware Approximate
09:07AM 32.0095 34.8769 125° Southeast  Level Estimated
09:08AM 32.0095 34.8769 125° Southeast  Level Estimated
09:09AM 32.0095 34.8769 125° Southeast  Level Estimated
09:10AM 32.0095 34.8769 125° Southeast  Level Estimated
09:11AM 32.0095 34.8769 125° Southeast  Level Estimated
09:12AM 32.0095 34.8769 125° Southeast  Level Estimated
09:13AM 32.0095 34.8769 125° Southeast  Level Estimated
09:14AM 32.0095 34.8769 125° Southeast  Level Estimated